sensor_id;sensor_type;location;lat;lon;timestamp;temperature;humidity
79571;DHT22;69034;49.444;7.758;2023-04-24T00:03:10;15.10;53.80
79571;DHT22;69034;49.444;7.758;2023-04-24T00:07:12;15.20;53.60
79571;DHT22;69034;49.444;7.758;2023-04-24T00:11:13;15.30;53.40
79571;DHT22;69034;49.444;7.758;2023-04-24T00:15:14;15.40;53.40
79571;DHT22;69034;49.444;7.758;2023-04-24T00:19:14;15.40;53.40
79571;DHT22;69034;49.444;7.758;2023-04-24T00:23:15;15.20;53.70
79571;DHT22;69034;49.444;7.758;2023-04-24T00:27:15;15.10;53.80
79571;DHT22;69034;49.444;7.758;2023-04-24T00:31:16;15.10;54.00
79571;DHT22;69034;49.444;7.758;2023-04-24T00:35:17;15.00;54.10
79571;DHT22;69034;49.444;7.758;2023-04-24T00:39:20;14.90;54.00
79571;DHT22;69034;49.444;7.758;2023-04-24T00:43:20;14.90;54.30
79571;DHT22;69034;49.444;7.758;2023-04-24T00:47:21;14.80;54.40
79571;DHT22;69034;49.444;7.758;2023-04-24T00:51:22;14.80;54.40
79571;DHT22;69034;49.444;7.758;2023-04-24T00:55:25;14.70;54.40
79571;DHT22;69034;49.444;7.758;2023-04-24T00:59:26;14.70;54.60
79571;DHT22;69034;49.444;7.758;2023-04-24T01:03:29;14.70;54.60
79571;DHT22;69034;49.444;7.758;2023-04-24T01:07:32;14.70;54.60
79571;DHT22;69034;49.444;7.758;2023-04-24T01:11:32;14.70;54.60
79571;DHT22;69034;49.444;7.758;2023-04-24T01:15:34;14.70;54.70
79571;DHT22;69034;49.444;7.758;2023-04-24T01:19:34;14.70;54.70
79571;DHT22;69034;49.444;7.758;2023-04-24T01:23:35;14.70;54.70
79571;DHT22;69034;49.444;7.758;2023-04-24T01:27:36;14.70;54.70
79571;DHT22;69034;49.444;7.758;2023-04-24T01:31:37;14.70;54.80
79571;DHT22;69034;49.444;7.758;2023-04-24T01:35:38;14.60;55.50
79571;DHT22;69034;49.444;7.758;2023-04-24T01:39:39;14.50;55.80
79571;DHT22;69034;49.444;7.758;2023-04-24T01:43:40;14.50;56.20
79571;DHT22;69034;49.444;7.758;2023-04-24T01:47:41;14.40;56.30
79571;DHT22;69034;49.444;7.758;2023-04-24T01:51:42;14.30;56.40
79571;DHT22;69034;49.444;7.758;2023-04-24T01:55:43;14.20;56.60
79571;DHT22;69034;49.444;7.758;2023-04-24T01:59:44;14.20;56.80
79571;DHT22;69034;49.444;7.758;2023-04-24T02:03:44;14.10;56.80
79571;DHT22;69034;49.444;7.758;2023-04-24T02:07:45;14.10;56.80
79571;DHT22;69034;49.444;7.758;2023-04-24T02:11:46;14.10;56.80
79571;DHT22;69034;49.444;7.758;2023-04-24T02:15:46;14.20;56.70
79571;DHT22;69034;49.444;7.758;2023-04-24T02:19:47;14.30;56.60
79571;DHT22;69034;49.444;7.758;2023-04-24T02:23:48;14.40;56.50
79571;DHT22;69034;49.444;7.758;2023-04-24T02:27:49;14.40;56.40
79571;DHT22;69034;49.444;7.758;2023-04-24T02:31:50;14.50;56.20
79571;DHT22;69034;49.444;7.758;2023-04-24T02:35:50;14.50;56.00
79571;DHT22;69034;49.444;7.758;2023-04-24T02:39:51;14.50;55.90
79571;DHT22;69034;49.444;7.758;2023-04-24T02:43:51;14.50;55.80
79571;DHT22;69034;49.444;7.758;2023-04-24T02:47:52;14.50;55.60
79571;DHT22;69034;49.444;7.758;2023-04-24T02:51:53;14.30;55.80
79571;DHT22;69034;49.444;7.758;2023-04-24T02:55:53;14.20;56.00
79571;DHT22;69034;49.444;7.758;2023-04-24T02:59:54;14.10;56.00
79571;DHT22;69034;49.444;7.758;2023-04-24T03:03:55;14.00;56.10
79571;DHT22;69034;49.444;7.758;2023-04-24T03:07:55;13.90;56.10
79571;DHT22;69034;49.444;7.758;2023-04-24T03:11:56;13.90;56.30
79571;DHT22;69034;49.444;7.758;2023-04-24T03:15:57;13.80;56.30
79571;DHT22;69034;49.444;7.758;2023-04-24T03:19:58;13.70;56.40
79571;DHT22;69034;49.444;7.758;2023-04-24T03:23:58;13.60;56.50
79571;DHT22;69034;49.444;7.758;2023-04-24T03:27:59;13.50;56.70
79571;DHT22;69034;49.444;7.758;2023-04-24T03:31:59;13.40;56.80
79571;DHT22;69034;49.444;7.758;2023-04-24T03:36:00;13.30;57.00
79571;DHT22;69034;49.444;7.758;2023-04-24T03:40:01;13.30;57.00
79571;DHT22;69034;49.444;7.758;2023-04-24T03:44:02;13.20;57.00
79571;DHT22;69034;49.444;7.758;2023-04-24T03:48:03;13.10;57.10
79571;DHT22;69034;49.444;7.758;2023-04-24T03:52:04;13.00;57.20
79571;DHT22;69034;49.444;7.758;2023-04-24T03:56:04;13.00;57.10
79571;DHT22;69034;49.444;7.758;2023-04-24T04:00:06;12.90;57.20
79571;DHT22;69034;49.444;7.758;2023-04-24T04:04:07;12.80;57.20
79571;DHT22;69034;49.444;7.758;2023-04-24T04:08:08;12.80;57.30
79571;DHT22;69034;49.444;7.758;2023-04-24T04:12:08;12.80;57.30
79571;DHT22;69034;49.444;7.758;2023-04-24T04:16:09;12.70;57.40
79571;DHT22;69034;49.444;7.758;2023-04-24T04:20:10;12.70;57.40
79571;DHT22;69034;49.444;7.758;2023-04-24T04:24:11;12.70;57.40
79571;DHT22;69034;49.444;7.758;2023-04-24T04:28:12;12.80;57.30
79571;DHT22;69034;49.444;7.758;2023-04-24T04:32:12;12.80;57.30
79571;DHT22;69034;49.444;7.758;2023-04-24T04:36:13;12.80;57.20
79571;DHT22;69034;49.444;7.758;2023-04-24T04:40:14;12.80;57.30
79571;DHT22;69034;49.444;7.758;2023-04-24T04:44:15;12.80;57.30
79571;DHT22;69034;49.444;7.758;2023-04-24T04:48:15;12.80;57.20
79571;DHT22;69034;49.444;7.758;2023-04-24T04:52:18;12.80;57.40
79571;DHT22;69034;49.444;7.758;2023-04-24T04:56:19;12.80;57.50
79571;DHT22;69034;49.444;7.758;2023-04-24T05:00:19;13.00;57.30
79571;DHT22;69034;49.444;7.758;2023-04-24T05:04:21;13.20;57.00
79571;DHT22;69034;49.444;7.758;2023-04-24T05:08:22;13.30;56.90
79571;DHT22;69034;49.444;7.758;2023-04-24T05:12:22;13.40;56.60
79571;DHT22;69034;49.444;7.758;2023-04-24T05:16:23;13.50;56.50
79571;DHT22;69034;49.444;7.758;2023-04-24T05:20:23;13.60;56.40
79571;DHT22;69034;49.444;7.758;2023-04-24T05:24:24;13.70;56.30
79571;DHT22;69034;49.444;7.758;2023-04-24T05:28:25;13.70;56.10
79571;DHT22;69034;49.444;7.758;2023-04-24T05:32:28;13.70;56.20
79571;DHT22;69034;49.444;7.758;2023-04-24T05:36:29;13.60;56.30
79571;DHT22;69034;49.444;7.758;2023-04-24T05:40:29;13.40;56.50
79571;DHT22;69034;49.444;7.758;2023-04-24T05:44:30;13.30;56.60
79571;DHT22;69034;49.444;7.758;2023-04-24T05:48:31;13.30;56.60
79571;DHT22;69034;49.444;7.758;2023-04-24T05:52:32;13.20;56.70
79571;DHT22;69034;49.444;7.758;2023-04-24T05:56:32;13.30;56.80
79571;DHT22;69034;49.444;7.758;2023-04-24T06:00:33;13.40;56.80
79571;DHT22;69034;49.444;7.758;2023-04-24T06:04:34;13.50;56.60
79571;DHT22;69034;49.444;7.758;2023-04-24T06:08:35;13.60;56.40
79571;DHT22;69034;49.444;7.758;2023-04-24T06:12:36;13.60;56.40
79571;DHT22;69034;49.444;7.758;2023-04-24T06:16:37;13.60;56.40
79571;DHT22;69034;49.444;7.758;2023-04-24T06:20:39;13.70;56.40
79571;DHT22;69034;49.444;7.758;2023-04-24T06:24:40;13.90;56.10
79571;DHT22;69034;49.444;7.758;2023-04-24T06:28:41;14.10;55.80
79571;DHT22;69034;49.444;7.758;2023-04-24T06:32:41;14.50;55.30
79571;DHT22;69034;49.444;7.758;2023-04-24T06:36:42;14.80;55.00
79571;DHT22;69034;49.444;7.758;2023-04-24T06:40:43;15.10;54.50
79571;DHT22;69034;49.444;7.758;2023-04-24T06:44:43;15.00;54.70
79571;DHT22;69034;49.444;7.758;2023-04-24T06:48:44;14.80;55.00
79571;DHT22;69034;49.444;7.758;2023-04-24T06:52:45;14.70;55.10
79571;DHT22;69034;49.444;7.758;2023-04-24T06:56:46;14.80;54.90
79571;DHT22;69034;49.444;7.758;2023-04-24T07:00:48;15.10;54.50
79571;DHT22;69034;49.444;7.758;2023-04-24T07:04:48;15.50;53.80
79571;DHT22;69034;49.444;7.758;2023-04-24T07:08:49;15.90;53.30
79571;DHT22;69034;49.444;7.758;2023-04-24T07:12:50;16.00;53.30
79571;DHT22;69034;49.444;7.758;2023-04-24T07:16:50;16.10;53.00
79571;DHT22;69034;49.444;7.758;2023-04-24T07:20:51;16.30;52.40
79571;DHT22;69034;49.444;7.758;2023-04-24T07:24:52;16.40;52.30
79571;DHT22;69034;49.444;7.758;2023-04-24T07:28:52;16.30;52.30
79571;DHT22;69034;49.444;7.758;2023-04-24T07:32:53;16.40;52.00
79571;DHT22;69034;49.444;7.758;2023-04-24T07:36:54;16.50;51.60
79571;DHT22;69034;49.444;7.758;2023-04-24T07:40:54;17.00;50.70
79571;DHT22;69034;49.444;7.758;2023-04-24T07:44:55;17.10;50.80
79571;DHT22;69034;49.444;7.758;2023-04-24T07:48:56;17.00;50.90
79571;DHT22;69034;49.444;7.758;2023-04-24T07:52:58;16.90;50.70
79571;DHT22;69034;49.444;7.758;2023-04-24T07:56:58;17.10;50.40
79571;DHT22;69034;49.444;7.758;2023-04-24T08:00:59;17.50;49.60
79571;DHT22;69034;49.444;7.758;2023-04-24T08:04:59;17.60;49.70
79571;DHT22;69034;49.444;7.758;2023-04-24T08:09:00;17.50;49.60
79571;DHT22;69034;49.444;7.758;2023-04-24T08:13:01;17.30;49.60
79571;DHT22;69034;49.444;7.758;2023-04-24T08:17:02;17.10;49.70
79571;DHT22;69034;49.444;7.758;2023-04-24T08:21:03;16.80;49.90
79571;DHT22;69034;49.444;7.758;2023-04-24T08:25:05;16.70;49.80
79571;DHT22;69034;49.444;7.758;2023-04-24T08:29:05;16.60;49.90
79571;DHT22;69034;49.444;7.758;2023-04-24T08:33:07;16.60;49.80
79571;DHT22;69034;49.444;7.758;2023-04-24T08:37:07;16.60;49.90
79571;DHT22;69034;49.444;7.758;2023-04-24T08:41:09;17.00;49.00
79571;DHT22;69034;49.444;7.758;2023-04-24T08:45:12;17.10;49.00
79571;DHT22;69034;49.444;7.758;2023-04-24T08:49:16;17.40;48.60
79571;DHT22;69034;49.444;7.758;2023-04-24T08:53:19;17.30;49.00
79571;DHT22;69034;49.444;7.758;2023-04-24T08:57:20;17.10;49.30
79571;DHT22;69034;49.444;7.758;2023-04-24T09:01:21;16.90;49.40
79571;DHT22;69034;49.444;7.758;2023-04-24T09:05:23;16.70;49.50
79571;DHT22;69034;49.444;7.758;2023-04-24T09:09:25;16.80;49.40
79571;DHT22;69034;49.444;7.758;2023-04-24T09:13:26;16.90;49.10
79571;DHT22;69034;49.444;7.758;2023-04-24T09:17:27;17.00;49.10
79571;DHT22;69034;49.444;7.758;2023-04-24T09:21:33;17.10;48.90
79571;DHT22;69034;49.444;7.758;2023-04-24T09:25:34;16.90;49.20
79571;DHT22;69034;49.444;7.758;2023-04-24T09:29:38;16.90;49.30
79571;DHT22;69034;49.444;7.758;2023-04-24T09:33:38;17.10;48.80
79571;DHT22;69034;49.444;7.758;2023-04-24T09:37:41;18.00;47.60
79571;DHT22;69034;49.444;7.758;2023-04-24T09:45:56;18.70;46.80
79571;DHT22;69034;49.444;7.758;2023-04-24T09:49:58;18.60;47.20
79571;DHT22;69034;49.444;7.758;2023-04-24T09:53:59;18.80;46.80
79571;DHT22;69034;49.444;7.758;2023-04-24T09:58:00;18.50;47.10
79571;DHT22;69034;49.444;7.758;2023-04-24T10:02:01;18.40;47.20
79571;DHT22;69034;49.444;7.758;2023-04-24T10:06:03;18.00;47.50
79571;DHT22;69034;49.444;7.758;2023-04-24T10:10:09;17.70;47.90
79571;DHT22;69034;49.444;7.758;2023-04-24T10:14:15;17.80;47.70
79571;DHT22;69034;49.444;7.758;2023-04-24T10:18:16;18.00;47.20
79571;DHT22;69034;49.444;7.758;2023-04-24T10:22:17;18.40;46.30
79571;DHT22;69034;49.444;7.758;2023-04-24T10:26:19;19.10;45.40
79571;DHT22;69034;49.444;7.758;2023-04-24T10:30:20;20.00;44.20
79571;DHT22;69034;49.444;7.758;2023-04-24T10:34:22;20.80;43.20
79571;DHT22;69034;49.444;7.758;2023-04-24T10:38:25;21.60;42.20
79571;DHT22;69034;49.444;7.758;2023-04-24T10:42:27;22.30;41.30
79571;DHT22;69034;49.444;7.758;2023-04-24T10:46:32;23.20;40.00
79571;DHT22;69034;49.444;7.758;2023-04-24T10:51:02;23.40;40.00
79571;DHT22;69034;49.444;7.758;2023-04-24T10:55:03;23.00;39.30
79571;DHT22;69034;49.444;7.758;2023-04-24T10:59:07;23.20;39.60
79571;DHT22;69034;49.444;7.758;2023-04-24T11:03:22;23.40;38.50
79571;DHT22;69034;49.444;7.758;2023-04-24T11:07:23;22.90;39.50
79571;DHT22;69034;49.444;7.758;2023-04-24T11:11:28;22.00;39.90
79571;DHT22;69034;49.444;7.758;2023-04-24T11:15:29;21.30;40.70
79571;DHT22;69034;49.444;7.758;2023-04-24T11:19:30;20.80;41.00
79571;DHT22;69034;49.444;7.758;2023-04-24T11:23:36;20.80;40.90
79571;DHT22;69034;49.444;7.758;2023-04-24T11:27:41;20.60;41.10
79571;DHT22;69034;49.444;7.758;2023-04-24T11:31:44;20.30;41.40
79571;DHT22;69034;49.444;7.758;2023-04-24T11:35:51;20.10;41.50
79571;DHT22;69034;49.444;7.758;2023-04-24T11:39:57;19.90;41.80
79571;DHT22;69034;49.444;7.758;2023-04-24T11:43:58;19.90;41.70
79571;DHT22;69034;49.444;7.758;2023-04-24T11:47:59;20.10;41.50
79571;DHT22;69034;49.444;7.758;2023-04-24T11:52:00;20.50;41.10
79571;DHT22;69034;49.444;7.758;2023-04-24T11:56:05;20.90;40.50
79571;DHT22;69034;49.444;7.758;2023-04-24T12:00:06;21.50;39.90
79571;DHT22;69034;49.444;7.758;2023-04-24T12:04:08;22.00;39.50
79571;DHT22;69034;49.444;7.758;2023-04-24T12:08:09;22.20;39.40
79571;DHT22;69034;49.444;7.758;2023-04-24T12:12:11;22.30;39.20
79571;DHT22;69034;49.444;7.758;2023-04-24T12:16:12;22.20;39.10
79571;DHT22;69034;49.444;7.758;2023-04-24T12:20:14;22.10;39.00
79571;DHT22;69034;49.444;7.758;2023-04-24T12:24:14;22.20;38.60
79571;DHT22;69034;49.444;7.758;2023-04-24T12:28:15;23.00;37.50
79571;DHT22;69034;49.444;7.758;2023-04-24T12:32:16;23.80;36.50
79571;DHT22;69034;49.444;7.758;2023-04-24T12:36:17;24.70;37.30
79571;DHT22;69034;49.444;7.758;2023-04-24T12:40:19;25.60;34.90
79571;DHT22;69034;49.444;7.758;2023-04-24T12:44:20;26.00;34.50
79571;DHT22;69034;49.444;7.758;2023-04-24T12:48:21;27.20;33.10
79571;DHT22;69034;49.444;7.758;2023-04-24T12:52:23;28.50;30.80
79571;DHT22;69034;49.444;7.758;2023-04-24T12:56:24;27.60;31.90
79571;DHT22;69034;49.444;7.758;2023-04-24T13:00:25;27.40;32.50
79571;DHT22;69034;49.444;7.758;2023-04-24T13:04:25;31.10;28.90
79571;DHT22;69034;49.444;7.758;2023-04-24T13:08:26;30.90;28.60
79571;DHT22;69034;49.444;7.758;2023-04-24T13:12:26;29.30;29.70
79571;DHT22;69034;49.444;7.758;2023-04-24T13:16:27;27.80;29.90
79571;DHT22;69034;49.444;7.758;2023-04-24T13:20:28;26.50;30.90
79571;DHT22;69034;49.444;7.758;2023-04-24T13:24:29;25.50;31.90
79571;DHT22;69034;49.444;7.758;2023-04-24T13:28:31;24.80;32.50
79571;DHT22;69034;49.444;7.758;2023-04-24T13:32:32;24.80;32.70
79571;DHT22;69034;49.444;7.758;2023-04-24T13:36:33;24.30;33.30
79571;DHT22;69034;49.444;7.758;2023-04-24T13:40:34;24.00;33.60
79571;DHT22;69034;49.444;7.758;2023-04-24T13:44:35;25.40;32.00
79571;DHT22;69034;49.444;7.758;2023-04-24T13:48:36;25.20;32.40
79571;DHT22;69034;49.444;7.758;2023-04-24T13:52:36;28.00;30.90
79571;DHT22;69034;49.444;7.758;2023-04-24T13:56:37;33.00;27.10
79571;DHT22;69034;49.444;7.758;2023-04-24T14:00:38;34.70;25.60
79571;DHT22;69034;49.444;7.758;2023-04-24T14:04:40;33.40;26.30
79571;DHT22;69034;49.444;7.758;2023-04-24T14:08:41;34.00;25.30
79571;DHT22;69034;49.444;7.758;2023-04-24T14:12:41;32.70;25.40
79571;DHT22;69034;49.444;7.758;2023-04-24T14:16:42;31.50;26.20
79571;DHT22;69034;49.444;7.758;2023-04-24T14:20:49;30.10;27.10
79571;DHT22;69034;49.444;7.758;2023-04-24T14:24:49;28.70;28.00
79571;DHT22;69034;49.444;7.758;2023-04-24T14:28:53;27.50;29.00
79571;DHT22;69034;49.444;7.758;2023-04-24T14:32:55;26.60;29.60
79571;DHT22;69034;49.444;7.758;2023-04-24T14:36:55;26.20;30.10
79571;DHT22;69034;49.444;7.758;2023-04-24T14:40:56;27.90;30.10
79571;DHT22;69034;49.444;7.758;2023-04-24T14:44:57;32.80;25.80
79571;DHT22;69034;49.444;7.758;2023-04-24T14:48:57;33.30;25.40
79571;DHT22;69034;49.444;7.758;2023-04-24T14:52:58;32.50;26.60
79571;DHT22;69034;49.444;7.758;2023-04-24T14:56:59;31.90;26.30
79571;DHT22;69034;49.444;7.758;2023-04-24T15:01:01;30.50;27.20
79571;DHT22;69034;49.444;7.758;2023-04-24T15:05:02;29.40;28.10
79571;DHT22;69034;49.444;7.758;2023-04-24T15:09:03;28.30;28.80
79571;DHT22;69034;49.444;7.758;2023-04-24T15:13:03;27.90;28.80
79571;DHT22;69034;49.444;7.758;2023-04-24T15:17:04;27.40;29.10
79571;DHT22;69034;49.444;7.758;2023-04-24T15:21:05;27.20;29.20
79571;DHT22;69034;49.444;7.758;2023-04-24T15:25:06;28.70;28.30
79571;DHT22;69034;49.444;7.758;2023-04-24T15:29:07;32.20;25.40
79571;DHT22;69034;49.444;7.758;2023-04-24T15:33:07;34.70;19.80
79571;DHT22;69034;49.444;7.758;2023-04-24T15:37:08;37.00;18.80
79571;DHT22;69034;49.444;7.758;2023-04-24T15:41:08;37.10;18.30
79571;DHT22;69034;49.444;7.758;2023-04-24T15:45:10;36.80;18.50
79571;DHT22;69034;49.444;7.758;2023-04-24T15:49:10;37.90;17.60
79571;DHT22;69034;49.444;7.758;2023-04-24T15:53:11;37.90;17.30
79571;DHT22;69034;49.444;7.758;2023-04-24T15:57:11;37.20;17.40
79571;DHT22;69034;49.444;7.758;2023-04-24T16:01:12;36.20;17.80
79571;DHT22;69034;49.444;7.758;2023-04-24T16:05:13;36.00;17.60
79571;DHT22;69034;49.444;7.758;2023-04-24T16:09:14;36.40;17.50
79571;DHT22;69034;49.444;7.758;2023-04-24T16:13:15;36.30;17.90
79571;DHT22;69034;49.444;7.758;2023-04-24T16:17:17;36.10;18.10
79571;DHT22;69034;49.444;7.758;2023-04-24T16:21:19;35.80;18.60
79571;DHT22;69034;49.444;7.758;2023-04-24T16:25:20;34.60;19.50
79571;DHT22;69034;49.444;7.758;2023-04-24T16:29:21;32.80;24.70
79571;DHT22;69034;49.444;7.758;2023-04-24T16:33:21;31.20;25.70
79571;DHT22;69034;49.444;7.758;2023-04-24T16:37:22;29.80;26.90
79571;DHT22;69034;49.444;7.758;2023-04-24T16:41:23;28.80;27.80
79571;DHT22;69034;49.444;7.758;2023-04-24T16:45:23;27.80;28.90
79571;DHT22;69034;49.444;7.758;2023-04-24T16:49:24;27.00;29.70
79571;DHT22;69034;49.444;7.758;2023-04-24T16:53:30;26.30;30.10
79571;DHT22;69034;49.444;7.758;2023-04-24T16:57:30;25.90;30.70
79571;DHT22;69034;49.444;7.758;2023-04-24T17:01:31;25.50;31.30
79571;DHT22;69034;49.444;7.758;2023-04-24T17:05:32;25.00;32.00
79571;DHT22;69034;49.444;7.758;2023-04-24T17:09:33;24.60;32.40
79571;DHT22;69034;49.444;7.758;2023-04-24T17:13:34;24.40;32.40
79571;DHT22;69034;49.444;7.758;2023-04-24T17:17:35;24.00;32.60
79571;DHT22;69034;49.444;7.758;2023-04-24T17:21:35;23.70;32.80
79571;DHT22;69034;49.444;7.758;2023-04-24T17:25:36;23.30;33.20
79571;DHT22;69034;49.444;7.758;2023-04-24T17:29:37;23.00;33.40
79571;DHT22;69034;49.444;7.758;2023-04-24T17:33:37;22.70;33.70
79571;DHT22;69034;49.444;7.758;2023-04-24T17:37:38;22.40;34.10
79571;DHT22;69034;49.444;7.758;2023-04-24T17:41:39;22.10;34.50
79571;DHT22;69034;49.444;7.758;2023-04-24T17:45:39;21.80;34.80
79571;DHT22;69034;49.444;7.758;2023-04-24T17:49:40;21.50;34.90
79571;DHT22;69034;49.444;7.758;2023-04-24T17:53:42;21.10;35.10
79571;DHT22;69034;49.444;7.758;2023-04-24T17:57:43;20.80;35.30
79571;DHT22;69034;49.444;7.758;2023-04-24T18:01:44;20.50;35.70
79571;DHT22;69034;49.444;7.758;2023-04-24T18:05:45;20.20;36.10
79571;DHT22;69034;49.444;7.758;2023-04-24T18:09:45;19.90;36.30
79571;DHT22;69034;49.444;7.758;2023-04-24T18:13:46;19.70;36.70
79571;DHT22;69034;49.444;7.758;2023-04-24T18:17:48;19.40;36.90
79571;DHT22;69034;49.444;7.758;2023-04-24T18:21:48;19.20;37.10
79571;DHT22;69034;49.444;7.758;2023-04-24T18:25:49;19.00;37.20
79571;DHT22;69034;49.444;7.758;2023-04-24T18:29:50;18.90;38.50
79571;DHT22;69034;49.444;7.758;2023-04-24T18:33:51;18.80;38.60
79571;DHT22;69034;49.444;7.758;2023-04-24T18:37:53;18.60;38.80
79571;DHT22;69034;49.444;7.758;2023-04-24T18:41:54;18.40;38.90
79571;DHT22;69034;49.444;7.758;2023-04-24T18:45:54;18.30;39.10
79571;DHT22;69034;49.444;7.758;2023-04-24T18:49:55;18.10;39.10
79571;DHT22;69034;49.444;7.758;2023-04-24T18:53:56;18.00;39.20
79571;DHT22;69034;49.444;7.758;2023-04-24T18:57:57;17.80;39.40
79571;DHT22;69034;49.444;7.758;2023-04-24T19:01:57;17.80;39.60
79571;DHT22;69034;49.444;7.758;2023-04-24T19:05:58;17.90;39.60
79571;DHT22;69034;49.444;7.758;2023-04-24T19:09:59;17.90;39.60
79571;DHT22;69034;49.444;7.758;2023-04-24T19:13:59;17.90;39.70
79571;DHT22;69034;49.444;7.758;2023-04-24T19:18:03;17.90;39.70
79571;DHT22;69034;49.444;7.758;2023-04-24T19:22:03;17.90;39.80
79571;DHT22;69034;49.444;7.758;2023-04-24T19:26:05;17.80;39.90
79571;DHT22;69034;49.444;7.758;2023-04-24T19:30:06;17.80;40.00
79571;DHT22;69034;49.444;7.758;2023-04-24T19:34:07;17.70;40.00
79571;DHT22;69034;49.444;7.758;2023-04-24T19:38:07;17.70;40.10
79571;DHT22;69034;49.444;7.758;2023-04-24T19:42:08;17.60;40.10
79571;DHT22;69034;49.444;7.758;2023-04-24T19:46:09;17.80;41.60
79571;DHT22;69034;49.444;7.758;2023-04-24T19:50:10;17.70;41.70
79571;DHT22;69034;49.444;7.758;2023-04-24T19:54:11;17.50;42.10
79571;DHT22;69034;49.444;7.758;2023-04-24T19:58:11;17.20;42.30
79571;DHT22;69034;49.444;7.758;2023-04-24T20:02:12;17.00;42.50
79571;DHT22;69034;49.444;7.758;2023-04-24T20:06:12;16.80;42.60
79571;DHT22;69034;49.444;7.758;2023-04-24T20:10:13;16.70;42.90
79571;DHT22;69034;49.444;7.758;2023-04-24T20:14:14;16.50;43.10
79571;DHT22;69034;49.444;7.758;2023-04-24T20:18:14;16.30;43.60
79571;DHT22;69034;49.444;7.758;2023-04-24T20:22:16;16.10;44.00
79571;DHT22;69034;49.444;7.758;2023-04-24T20:26:17;16.00;44.00
79571;DHT22;69034;49.444;7.758;2023-04-24T20:30:17;15.90;44.20
79571;DHT22;69034;49.444;7.758;2023-04-24T20:34:19;15.80;44.40
79571;DHT22;69034;49.444;7.758;2023-04-24T20:38:19;15.60;44.70
79571;DHT22;69034;49.444;7.758;2023-04-24T20:42:21;15.50;45.10
79571;DHT22;69034;49.444;7.758;2023-04-24T20:46:22;15.40;46.10
79571;DHT22;69034;49.444;7.758;2023-04-24T20:50:23;15.50;47.20
79571;DHT22;69034;49.444;7.758;2023-04-24T20:54:24;15.50;47.30
79571;DHT22;69034;49.444;7.758;2023-04-24T20:58:25;15.40;47.40
79571;DHT22;69034;49.444;7.758;2023-04-24T21:02:25;15.40;47.40
79571;DHT22;69034;49.444;7.758;2023-04-24T21:06:26;15.50;47.20
79571;DHT22;69034;49.444;7.758;2023-04-24T21:10:27;15.40;47.30
79571;DHT22;69034;49.444;7.758;2023-04-24T21:14:27;15.40;47.40
79571;DHT22;69034;49.444;7.758;2023-04-24T21:18:29;15.40;47.40
79571;DHT22;69034;49.444;7.758;2023-04-24T21:22:29;15.40;47.30
79571;DHT22;69034;49.444;7.758;2023-04-24T21:26:30;15.30;47.30
79571;DHT22;69034;49.444;7.758;2023-04-24T21:30:30;15.20;47.20
79571;DHT22;69034;49.444;7.758;2023-04-24T21:34:31;15.10;47.20
79571;DHT22;69034;49.444;7.758;2023-04-24T21:38:32;15.00;47.30
79571;DHT22;69034;49.444;7.758;2023-04-24T21:42:32;14.80;47.40
79571;DHT22;69034;49.444;7.758;2023-04-24T21:46:33;14.70;47.50
79571;DHT22;69034;49.444;7.758;2023-04-24T21:50:34;14.60;47.70
79571;DHT22;69034;49.444;7.758;2023-04-24T21:54:34;14.50;47.80
79571;DHT22;69034;49.444;7.758;2023-04-24T21:58:35;14.50;47.80
79571;DHT22;69034;49.444;7.758;2023-04-24T22:02:36;14.40;47.90
79571;DHT22;69034;49.444;7.758;2023-04-24T22:06:37;14.30;48.00
79571;DHT22;69034;49.444;7.758;2023-04-24T22:10:38;14.20;48.20
79571;DHT22;69034;49.444;7.758;2023-04-24T22:14:38;14.20;48.30
79571;DHT22;69034;49.444;7.758;2023-04-24T22:18:39;14.10;48.40
79571;DHT22;69034;49.444;7.758;2023-04-24T22:22:40;14.00;48.40
79571;DHT22;69034;49.444;7.758;2023-04-24T22:26:40;14.00;48.50
79571;DHT22;69034;49.444;7.758;2023-04-24T22:30:42;14.00;48.50
79571;DHT22;69034;49.444;7.758;2023-04-24T22:34:42;13.90;48.60
79571;DHT22;69034;49.444;7.758;2023-04-24T22:38:44;13.90;48.70
79571;DHT22;69034;49.444;7.758;2023-04-24T22:42:44;13.90;48.70
79571;DHT22;69034;49.444;7.758;2023-04-24T22:46:45;13.80;48.70
79571;DHT22;69034;49.444;7.758;2023-04-24T22:50:46;13.80;48.90
79571;DHT22;69034;49.444;7.758;2023-04-24T22:54:47;13.90;49.00
79571;DHT22;69034;49.444;7.758;2023-04-24T22:58:48;14.00;48.80
79571;DHT22;69034;49.444;7.758;2023-04-24T23:02:49;14.10;48.60
79571;DHT22;69034;49.444;7.758;2023-04-24T23:06:49;14.20;48.50
79571;DHT22;69034;49.444;7.758;2023-04-24T23:10:50;14.20;48.40
79571;DHT22;69034;49.444;7.758;2023-04-24T23:14:51;14.30;48.50
79571;DHT22;69034;49.444;7.758;2023-04-24T23:18:51;14.30;48.40
79571;DHT22;69034;49.444;7.758;2023-04-24T23:22:52;14.30;48.40
79571;DHT22;69034;49.444;7.758;2023-04-24T23:26:53;14.20;48.40
79571;DHT22;69034;49.444;7.758;2023-04-24T23:30:53;14.00;48.60
79571;DHT22;69034;49.444;7.758;2023-04-24T23:34:54;13.90;48.90
79571;DHT22;69034;49.444;7.758;2023-04-24T23:38:55;13.80;49.00
79571;DHT22;69034;49.444;7.758;2023-04-24T23:42:56;13.70;49.20
79571;DHT22;69034;49.444;7.758;2023-04-24T23:46:57;13.60;49.30
79571;DHT22;69034;49.444;7.758;2023-04-24T23:50:58;13.50;49.40
79571;DHT22;69034;49.444;7.758;2023-04-24T23:54:59;13.50;49.60
79571;DHT22;69034;49.444;7.758;2023-04-24T23:58:59;13.40;49.70
